Time;durP1;ratioP1;P1;durP2;ratioP2;P2;SDS_P1;SDS_P2;PMS_P1;PMS_P2;Temp;Humidity;BMP_temperature;BMP_pressure;BME280_temperature;BME280_humidity;BME280_pressure;Samples;Min_cycle;Max_cycle;Signal;HPM_P1;HPM_P2
2023/08/30 00:00:21;;;;;;;17.88;11.15;;;;;;;24.49;71.76;98485.75;5051949;28;20035;-42
2023/08/30 00:02:47;;;;;;;15.88;11.13;;;;;;;24.63;71.80;98495.66;5052126;28;20393;-44
2023/08/30 00:05:13;;;;;;;13.65;10.60;;;;;;;24.68;70.90;98498.19;5052050;28;20100;-43
2023/08/30 00:07:39;;;;;;;16.65;10.38;;;;;;;24.49;72.53;98502.09;5051766;28;20032;-43
2023/08/30 00:10:06;;;;;;;14.88;10.40;;;;;;;24.63;71.90;98504.59;5050449;28;20029;-43
2023/08/30 00:12:32;;;;;;;15.32;10.48;;;;;;;24.65;71.10;98499.63;5052025;28;20056;-44
2023/08/30 00:14:57;;;;;;;14.73;9.98;;;;;;;24.64;69.45;98495.34;5051928;28;20104;-46
2023/08/30 00:17:23;;;;;;;13.30;9.65;;;;;;;24.59;69.40;98490.06;5052013;28;20025;-48
2023/08/30 00:19:48;;;;;;;14.93;10.10;;;;;;;24.65;70.29;98487.97;5051852;28;20096;-48
2023/08/30 00:22:14;;;;;;;13.77;9.75;;;;;;;24.58;69.51;98477.63;5051453;28;20028;-47
2023/08/30 00:24:40;;;;;;;16.52;9.65;;;;;;;24.55;71.00;98483.69;5051530;28;20543;-46
2023/08/30 00:27:06;;;;;;;12.90;10.00;;;;;;;24.60;70.57;98478.09;5051981;28;20104;-43
2023/08/30 00:29:31;;;;;;;13.60;9.85;;;;;;;24.42;69.77;98480.03;5051743;28;20422;-43
2023/08/30 00:31:57;;;;;;;12.90;10.07;;;;;;;24.38;70.34;98484.53;5051593;28;20029;-44
2023/08/30 00:34:22;;;;;;;16.48;10.40;;;;;;;24.60;68.31;98491.69;5051383;28;20025;-44
2023/08/30 00:36:48;;;;;;;14.60;9.93;;;;;;;24.36;70.13;98489.50;5051487;28;20025;-43
2023/08/30 00:39:13;;;;;;;14.57;10.25;;;;;;;24.30;68.84;98490.81;5051631;28;20029;-43
2023/08/30 00:41:40;;;;;;;15.30;10.05;;;;;;;24.32;68.30;98483.91;5051676;28;20052;-46
2023/08/30 00:44:05;;;;;;;12.38;9.73;;;;;;;24.24;67.97;98490.19;5051770;28;20069;-44
2023/08/30 00:46:33;;;;;;;15.82;10.18;;;;;;;24.19;68.19;98496.56;5051494;28;20405;-45
2023/08/30 00:48:59;;;;;;;14.57;9.20;;;;;;;24.11;67.65;98502.84;5051120;28;20036;-42
2023/08/30 00:51:25;;;;;;;12.93;8.93;;;;;;;24.12;67.49;98507.16;5051377;28;20033;-47
2023/08/30 00:53:50;;;;;;;15.20;9.15;;;;;;;24.18;66.36;98497.72;5051342;28;20021;-44
2023/08/30 00:56:17;;;;;;;12.13;8.75;;;;;;;24.19;66.09;98498.50;5051493;28;20048;-43
2023/08/30 00:58:43;;;;;;;11.75;8.18;;;;;;;23.96;67.67;98500.63;5051632;28;20099;-46
2023/08/30 01:01:09;;;;;;;13.07;7.88;;;;;;;24.06;66.20;98494.06;5050979;28;20112;-44
2023/08/30 01:03:35;;;;;;;9.75;7.88;;;;;;;24.20;65.49;98497.38;5051103;28;20029;-44
2023/08/30 01:06:00;;;;;;;11.95;7.65;;;;;;;24.11;65.49;98494.69;5050937;28;20032;-43
2023/08/30 01:08:27;;;;;;;9.98;7.55;;;;;;;23.98;66.06;98485.59;5051320;28;20052;-43
2023/08/30 01:11:24;;;;;;;10.88;7.63;;;;;;;24.00;65.45;98496.94;5050809;28;20025;-44
2023/08/30 01:14:08;;;;;;;11.95;7.93;;;;;;;23.83;66.66;98515.19;5050281;28;20457;-44
2023/08/30 01:16:35;;;;;;;11.48;7.53;;;;;;;23.84;66.11;98514.88;5050969;28;20488;-44
2023/08/30 01:19:17;;;;;;;10.30;7.88;;;;;;;24.39;64.37;98508.69;5051003;28;20032;-45
2023/08/30 01:22:07;;;;;;;10.90;7.78;;;;;;;24.81;62.81;98521.66;5050314;28;20492;-43
2023/08/30 01:24:43;;;;;;;14.40;8.00;;;;;;;24.92;61.87;98517.44;5050800;28;20397;-42
2023/08/30 01:27:10;;;;;;;12.35;7.90;;;;;;;24.67;61.82;98519.16;5051009;28;20110;-42
2023/08/30 01:29:42;;;;;;;14.95;7.85;;;;;;;24.15;62.60;98514.66;5050639;28;20075;-44
2023/08/30 01:32:09;;;;;;;10.15;7.47;;;;;;;23.90;63.50;98518.22;5050483;28;20037;-43
2023/08/30 01:34:37;;;;;;;12.63;7.55;;;;;;;24.17;62.61;98514.34;5050677;28;20066;-46
2023/08/30 01:37:04;;;;;;;11.52;8.15;;;;;;;23.88;63.31;98528.59;5050665;28;20041;-46
2023/08/30 01:39:31;;;;;;;11.65;7.72;;;;;;;24.07;62.94;98534.50;5051025;28;20093;-44
2023/08/30 01:41:58;;;;;;;13.18;7.82;;;;;;;24.07;63.12;98533.69;5050137;28;20064;-46
2023/08/30 01:44:31;;;;;;;9.20;7.80;;;;;;;23.87;63.35;98532.44;5050483;28;20028;-44
2023/08/30 01:46:58;;;;;;;9.43;7.40;;;;;;;23.77;63.57;98530.81;5050364;28;20032;-43
2023/08/30 01:49:25;;;;;;;11.23;7.60;;;;;;;23.72;63.57;98525.53;5050257;28;20029;-46
2023/08/30 01:51:51;;;;;;;10.43;7.35;;;;;;;23.77;63.82;98534.31;5050355;28;20467;-47
2023/08/30 01:54:20;;;;;;;9.38;7.25;;;;;;;23.99;63.07;98530.66;5050359;28;20029;-44
2023/08/30 01:56:46;;;;;;;11.27;7.70;;;;;;;24.40;61.25;98533.94;5050553;28;20176;-44
2023/08/30 01:59:13;;;;;;;9.73;7.45;;;;;;;24.55;60.91;98527.19;5050185;28;20025;-44
2023/08/30 02:01:38;;;;;;;11.65;7.43;;;;;;;24.66;62.12;98538.53;5050377;28;20162;-44
2023/08/30 02:04:04;;;;;;;10.10;7.80;;;;;;;24.74;61.94;98537.69;5050213;28;20116;-44
2023/08/30 02:06:57;;;;;;;10.82;7.93;;;;;;;24.75;61.56;98544.72;5050099;28;20029;-44
2023/08/30 02:09:34;;;;;;;10.55;7.90;;;;;;;24.83;61.17;98540.34;5050115;28;20109;-44
2023/08/30 02:12:06;;;;;;;11.30;7.47;;;;;;;24.86;60.53;98535.06;5050269;28;20033;-44
2023/08/30 02:14:32;;;;;;;20.05;8.85;;;;;;;24.89;60.83;98537.13;5050224;28;20025;-44
2023/08/30 02:16:58;;;;;;;9.20;7.60;;;;;;;24.89;60.89;98525.47;5050206;28;20032;-43
2023/08/30 02:19:25;;;;;;;10.00;7.38;;;;;;;24.87;60.90;98525.78;5050225;28;20024;-46
2023/08/30 02:21:50;;;;;;;11.38;7.60;;;;;;;24.82;60.41;98525.16;5050484;28;20025;-43
2023/08/30 02:24:16;;;;;;;10.10;7.28;;;;;;;24.86;60.16;98529.63;5050360;28;20044;-43
2023/08/30 02:26:41;;;;;;;9.90;7.55;;;;;;;24.87;60.25;98533.16;5050318;28;20216;-44
2023/08/30 02:29:08;;;;;;;10.95;7.30;;;;;;;24.91;60.22;98521.28;5050455;28;20040;-43
2023/08/30 02:31:33;;;;;;;9.88;7.65;;;;;;;24.94;59.47;98522.53;5049807;28;20510;-47
2023/08/30 02:33:59;;;;;;;10.50;7.32;;;;;;;25.04;59.31;98519.47;5053018;28;20033;-44
2023/08/30 02:36:24;;;;;;;10.35;7.28;;;;;;;24.98;59.59;98520.78;5053995;28;20385;-44
2023/08/30 02:38:50;;;;;;;11.32;7.57;;;;;;;25.02;59.75;98527.16;5053538;28;20428;-44
2023/08/30 02:41:15;;;;;;;10.73;7.53;;;;;;;24.97;60.21;98525.41;5053413;28;20075;-43
2023/08/30 02:43:40;;;;;;;10.73;8.18;;;;;;;24.96;60.31;98523.81;5053219;28;20354;-44
2023/08/30 02:46:06;;;;;;;12.52;8.05;;;;;;;24.92;61.34;98517.44;5053568;28;20053;-44
2023/08/30 02:48:33;;;;;;;12.57;7.93;;;;;;;24.89;60.82;98522.75;5053636;28;20108;-44
2023/08/30 02:50:59;;;;;;;17.17;8.13;;;;;;;24.83;60.78;98529.47;5054035;28;20028;-44
2023/08/30 02:53:24;;;;;;;13.15;7.55;;;;;;;24.78;61.21;98531.25;5053522;28;20534;-44
2023/08/30 02:55:49;;;;;;;11.57;7.90;;;;;;;24.77;61.18;98539.75;5053541;28;20032;-42
2023/08/30 02:58:15;;;;;;;13.20;7.78;;;;;;;24.78;62.26;98544.06;5053636;28;20104;-45
2023/08/30 03:00:40;;;;;;;11.30;8.05;;;;;;;24.71;61.98;98539.16;5053427;28;20035;-43
2023/08/30 03:03:06;;;;;;;11.77;7.60;;;;;;;24.73;61.49;98542.34;5053237;28;20112;-44
2023/08/30 03:05:31;;;;;;;16.15;8.02;;;;;;;24.74;61.36;98548.56;5053313;28;20691;-44
2023/08/30 03:07:57;;;;;;;12.80;7.65;;;;;;;24.81;61.18;98542.59;5053537;28;20025;-44
2023/08/30 03:10:22;;;;;;;13.35;8.02;;;;;;;24.77;61.15;98546.00;5053279;28;20048;-42
2023/08/30 03:12:48;;;;;;;10.55;8.23;;;;;;;24.78;61.12;98553.03;5053421;28;20155;-44
2023/08/30 03:15:13;;;;;;;13.65;8.40;;;;;;;24.73;61.33;98552.41;5053283;28;20035;-45
2023/08/30 03:17:39;;;;;;;9.20;7.43;;;;;;;24.76;61.22;98554.47;5053178;28;20028;-42
2023/08/30 03:20:05;;;;;;;9.55;7.97;;;;;;;24.65;62.26;98553.25;5053434;28;20086;-43
2023/08/30 03:22:33;;;;;;;13.23;7.75;;;;;;;24.67;61.99;98561.88;5053360;28;20078;-44
2023/08/30 03:24:59;;;;;;;10.57;7.68;;;;;;;24.68;61.95;98561.56;5053198;28;20025;-43
2023/08/30 03:27:24;;;;;;;12.48;8.23;;;;;;;24.65;61.69;98561.41;5053105;28;20401;-42
2023/08/30 03:29:50;;;;;;;15.15;8.05;;;;;;;24.63;61.39;98561.72;5053187;28;20703;-42
2023/08/30 03:32:17;;;;;;;15.05;8.00;;;;;;;24.63;61.57;98563.66;5052568;28;20028;-46
2023/08/30 03:34:46;;;;;;;12.55;8.35;;;;;;;24.67;61.73;98573.53;5052527;28;20025;-45
2023/08/30 03:37:16;;;;;;;12.15;8.15;;;;;;;24.72;61.68;98573.38;5052780;28;20025;-44
2023/08/30 03:39:41;;;;;;;14.90;8.77;;;;;;;24.68;61.65;98574.34;5053087;28;20048;-44
2023/08/30 03:42:07;;;;;;;15.88;9.85;;;;;;;24.70;61.77;98575.63;5052087;28;20053;-45
2023/08/30 03:44:32;;;;;;;11.95;8.27;;;;;;;24.70;60.83;98572.91;5051908;28;20036;-43
2023/08/30 03:46:58;;;;;;;15.00;8.50;;;;;;;24.74;60.82;98573.03;5052750;28;20033;-43
2023/08/30 03:49:23;;;;;;;12.45;8.13;;;;;;;23.85;64.54;98578.13;5052576;28;20029;-41
2023/08/30 03:51:49;;;;;;;13.30;7.97;;;;;;;23.41;67.64;98584.28;5052280;28;20045;-46
2023/08/30 03:54:16;;;;;;;12.90;8.10;;;;;;;23.42;67.06;98580.47;5052225;28;20029;-46
2023/08/30 03:56:45;;;;;;;11.23;7.75;;;;;;;23.34;68.06;98577.72;5052093;28;20040;-43
2023/08/30 03:59:11;;;;;;;14.63;7.68;;;;;;;23.50;66.39;98583.50;5052318;28;20031;-44
2023/08/30 04:01:37;;;;;;;9.80;7.72;;;;;;;23.49;67.08;98587.34;5052044;28;20037;-42
2023/08/30 04:04:03;;;;;;;11.10;7.35;;;;;;;23.49;66.78;98598.97;5051959;28;20029;-42
2023/08/30 04:06:28;;;;;;;11.43;7.78;;;;;;;23.78;64.34;98600.31;5052093;28;20032;-42
2023/08/30 04:08:53;;;;;;;18.00;9.05;;;;;;;23.83;64.41;98602.09;5052168;28;20413;-44
2023/08/30 04:11:19;;;;;;;13.75;8.23;;;;;;;24.02;64.41;98604.50;5051983;28;20052;-44
2023/08/30 04:13:44;;;;;;;13.90;8.27;;;;;;;23.97;66.51;98610.88;5052050;28;20096;-42
2023/08/30 04:16:10;;;;;;;15.43;7.93;;;;;;;24.07;63.43;98605.13;5051435;28;20033;-42
2023/08/30 04:18:36;;;;;;;15.75;7.78;;;;;;;24.00;64.70;98604.81;5051737;28;20153;-43
2023/08/30 04:21:02;;;;;;;10.35;7.10;;;;;;;24.22;62.73;98598.41;5051842;28;20064;-43
2023/08/30 04:23:29;;;;;;;11.32;7.57;;;;;;;24.27;61.82;98598.22;5052276;28;20039;-42
2023/08/30 04:25:54;;;;;;;14.35;7.32;;;;;;;24.47;60.98;98598.69;5051867;28;20086;-44
2023/08/30 04:28:21;;;;;;;10.23;6.88;;;;;;;24.64;59.32;98598.69;5052103;28;20028;-44
2023/08/30 04:30:46;;;;;;;11.27;6.68;;;;;;;24.83;57.85;98606.47;5050193;28;20020;-45
2023/08/30 04:33:11;;;;;;;13.40;7.15;;;;;;;24.85;59.23;98608.88;5050458;28;20468;-46
2023/08/30 04:35:37;;;;;;;15.32;10.43;;;;;;;24.96;58.82;98608.16;5050202;28;20036;-43
2023/08/30 04:38:03;;;;;;;11.35;7.28;;;;;;;25.10;58.30;98604.44;5051077;28;20407;-43
2023/08/30 04:40:30;;;;;;;10.25;6.38;;;;;;;25.26;56.93;98608.22;5051328;28;20053;-43
2023/08/30 04:42:56;;;;;;;10.57;6.13;;;;;;;25.35;57.53;98594.56;5051640;28;20380;-41
2023/08/30 04:45:22;;;;;;;10.32;6.72;;;;;;;25.44;57.11;98592.59;5051484;28;20029;-42
2023/08/30 04:47:47;;;;;;;10.30;6.57;;;;;;;25.50;58.20;98604.88;5051772;28;20017;-43
2023/08/30 04:50:13;;;;;;;10.18;6.00;;;;;;;25.56;55.59;98602.75;5051649;28;20017;-44
2023/08/30 04:52:39;;;;;;;8.95;6.35;;;;;;;25.74;54.64;98601.50;5051510;28;20017;-43
2023/08/30 04:55:05;;;;;;;10.73;6.28;;;;;;;25.97;53.89;98606.66;5051061;28;20457;-43
2023/08/30 04:57:30;;;;;;;10.32;6.28;;;;;;;25.91;55.31;98610.66;5051433;28;20090;-44
2023/08/30 04:59:57;;;;;;;9.88;6.63;;;;;;;26.18;54.97;98605.81;5051454;28;20033;-43
2023/08/30 05:02:22;;;;;;;11.82;6.70;;;;;;;26.47;53.25;98607.66;5051531;28;20171;-42
2023/08/30 05:04:48;;;;;;;11.60;6.57;;;;;;;26.68;53.80;98611.13;5051097;28;20469;-46
2023/08/30 05:07:14;;;;;;;7.95;6.13;;;;;;;26.53;54.47;98600.84;5050797;28;20022;-45
2023/08/30 05:09:40;;;;;;;9.80;6.57;;;;;;;26.72;53.56;98606.59;5050833;28;20048;-47
2023/08/30 05:12:06;;;;;;;10.35;6.47;;;;;;;26.57;53.91;98604.47;5050839;28;20108;-44
2023/08/30 05:14:32;;;;;;;8.73;6.50;;;;;;;26.55;53.70;98612.22;5050744;28;20021;-42
2023/08/30 05:16:57;;;;;;;7.88;6.47;;;;;;;26.29;53.44;98599.66;5050750;28;20406;-45
2023/08/30 05:19:23;;;;;;;9.15;6.07;;;;;;;26.36;53.96;98611.94;5050584;28;20044;-45
2023/08/30 05:21:51;;;;;;;8.30;6.18;;;;;;;26.23;54.58;98598.25;5050464;28;20024;-44
2023/08/30 05:24:17;;;;;;;8.52;6.40;;;;;;;26.59;54.05;98618.59;5050162;28;20048;-44
2023/08/30 05:26:42;;;;;;;9.45;7.35;;;;;;;26.95;52.24;98619.03;5048783;28;20368;-44
2023/08/30 05:29:08;;;;;;;10.45;6.80;;;;;;;27.26;51.06;98615.75;5050267;28;20017;-44
2023/08/30 05:31:33;;;;;;;12.10;6.72;;;;;;;27.49;50.68;98616.91;5050292;28;20082;-43
2023/08/30 05:33:58;;;;;;;7.88;6.60;;;;;;;27.82;49.18;98623.31;5048930;28;20417;-44
2023/08/30 05:36:24;;;;;;;8.85;6.55;;;;;;;27.86;49.26;98624.22;5050321;28;20098;-44
2023/08/30 05:38:49;;;;;;;10.50;6.05;;;;;;;27.92;49.14;98625.59;5050690;28;20041;-46
2023/08/30 05:41:15;;;;;;;10.27;5.88;;;;;;;28.04;48.37;98620.06;5038649;28;20062;-44
2023/08/30 05:43:40;;;;;;;9.35;5.82;;;;;;;28.31;46.42;98628.66;5048811;28;20111;-44
2023/08/30 05:46:12;;;;;;;13.60;6.35;;;;;;;28.47;46.46;98632.22;5040237;28;20029;-42
2023/08/30 05:48:37;;;;;;;6.63;5.72;;;;;;;28.96;46.66;98630.34;5036034;28;20553;-43
2023/08/30 05:51:03;;;;;;;9.10;6.20;;;;;;;29.01;46.66;98632.81;5049883;28;20117;-44
2023/08/30 05:53:28;;;;;;;10.88;6.03;;;;;;;29.10;45.84;98629.94;5049752;28;20059;-45
2023/08/30 05:55:53;;;;;;;10.65;6.43;;;;;;;28.91;46.23;98633.38;5049883;28;20053;-44
2023/08/30 05:58:19;;;;;;;9.32;5.80;;;;;;;28.84;46.22;98640.25;5050395;28;20452;-46
2023/08/30 06:00:45;;;;;;;8.50;6.03;;;;;;;29.14;45.71;98655.47;5050730;28;20109;-46
2023/08/30 06:03:10;;;;;;;9.35;6.13;;;;;;;29.16;45.68;98653.19;5049692;28;20021;-44
2023/08/30 06:05:36;;;;;;;10.50;5.63;;;;;;;28.98;45.27;98628.06;5049358;28;20029;-43
2023/08/30 06:08:02;;;;;;;13.23;6.07;;;;;;;28.40;46.88;98629.28;5052783;28;20525;-44
2023/08/30 06:10:28;;;;;;;13.60;6.15;;;;;;;28.12;48.81;98642.97;5054247;28;20040;-44
2023/08/30 06:12:53;;;;;;;11.70;6.50;;;;;;;27.98;48.39;98656.22;5054311;28;20025;-44
2023/08/30 06:15:18;;;;;;;17.80;6.80;;;;;;;27.71;49.16;98658.53;5052573;28;20481;-44
2023/08/30 06:17:46;;;;;;;7.65;6.13;;;;;;;27.38;50.20;98653.19;5053763;28;20036;-43
2023/08/30 06:20:12;;;;;;;9.00;5.90;;;;;;;27.30;50.60;98652.16;5054277;28;20041;-42
2023/08/30 06:22:37;;;;;;;9.70;6.38;;;;;;;27.25;50.90;98653.19;5054137;28;20032;-44
2023/08/30 06:25:04;;;;;;;8.98;6.43;;;;;;;27.42;50.06;98651.38;5054312;28;20477;-43
2023/08/30 06:27:30;;;;;;;8.25;6.43;;;;;;;27.90;49.09;98652.47;5054116;28;20021;-44
2023/08/30 06:29:55;;;;;;;8.40;6.50;;;;;;;28.22;47.80;98649.88;5054045;28;20108;-44
2023/08/30 06:32:20;;;;;;;10.35;6.72;;;;;;;28.39;48.40;98644.13;5053798;28;20029;-44
2023/08/30 06:34:46;;;;;;;10.30;6.53;;;;;;;28.75;47.27;98650.56;5054083;28;20087;-45
2023/08/30 06:37:11;;;;;;;12.30;7.65;;;;;;;28.81;46.45;98653.84;5053671;28;20121;-44
2023/08/30 06:39:37;;;;;;;9.95;6.28;;;;;;;29.23;44.88;98667.84;5054203;28;20029;-43
2023/08/30 06:42:03;;;;;;;13.07;6.97;;;;;;;29.43;44.35;98656.94;5053450;28;20080;-43
2023/08/30 06:44:29;;;;;;;10.50;6.70;;;;;;;29.76;43.90;98659.31;5053888;28;20029;-42
2023/08/30 06:46:56;;;;;;;10.07;6.85;;;;;;;30.02;44.00;98666.13;5053750;28;20391;-43
2023/08/30 06:49:22;;;;;;;8.93;6.90;;;;;;;30.15;43.69;98664.03;5053929;28;20056;-43
2023/08/30 06:51:47;;;;;;;11.75;6.88;;;;;;;30.39;43.23;98666.53;5053172;28;20503;-44
2023/08/30 06:54:13;;;;;;;14.30;7.60;;;;;;;30.51;42.38;98668.31;5053377;28;20039;-42
2023/08/30 06:56:38;;;;;;;16.88;8.02;;;;;;;30.70;42.72;98669.44;5053017;28;20024;-44
2023/08/30 06:59:03;;;;;;;12.80;6.97;;;;;;;30.95;41.79;98667.16;5053142;28;20025;-44
2023/08/30 07:01:29;;;;;;;10.40;6.47;;;;;;;31.08;41.57;98676.03;5053799;28;20473;-44
2023/08/30 07:03:55;;;;;;;11.40;7.93;;;;;;;31.15;41.16;98678.91;5053465;28;20043;-44
2023/08/30 07:06:20;;;;;;;11.55;7.53;;;;;;;31.40;40.97;98679.31;5053993;28;20111;-43
2023/08/30 07:08:46;;;;;;;8.57;6.05;;;;;;;31.31;41.63;98668.56;5054148;28;20036;-45
2023/08/30 07:11:11;;;;;;;14.95;7.05;;;;;;;31.71;39.82;98674.69;5054164;28;20037;-43
2023/08/30 07:13:36;;;;;;;17.90;7.68;;;;;;;31.80;39.80;98669.72;5053499;28;20472;-42
2023/08/30 07:16:03;;;;;;;15.13;7.13;;;;;;;31.50;40.54;98678.69;5053647;28;20275;-41
2023/08/30 07:18:29;;;;;;;10.65;6.95;;;;;;;31.23;41.26;98675.09;5052888;28;20120;-42
2023/08/30 07:20:54;;;;;;;10.63;6.10;;;;;;;31.59;40.99;98683.13;5053676;28;20131;-43
2023/08/30 07:23:20;;;;;;;10.25;6.15;;;;;;;31.95;39.59;98679.75;5053022;28;20096;-43
2023/08/30 07:25:45;;;;;;;10.20;6.63;;;;;;;31.99;39.26;98657.78;5052518;28;20025;-45
2023/08/30 07:28:11;;;;;;;7.40;6.15;;;;;;;32.16;39.67;98672.97;5052765;28;20055;-42
2023/08/30 07:30:37;;;;;;;9.43;6.18;;;;;;;32.33;38.83;98677.88;5052554;28;20017;-42
2023/08/30 07:33:04;;;;;;;7.40;6.20;;;;;;;32.10;39.97;98674.44;5052531;28;20082;-44
2023/08/30 07:35:30;;;;;;;12.65;6.85;;;;;;;32.41;39.44;98677.97;5052208;28;20461;-44
2023/08/30 07:37:55;;;;;;;10.23;6.05;;;;;;;32.46;38.84;98677.63;5052943;28;20032;-44
2023/08/30 07:40:24;;;;;;;11.63;6.20;;;;;;;32.12;39.69;98677.59;5052212;28;20128;-42
2023/08/30 07:42:49;;;;;;;;;;;;;;;32.15;39.30;98669.41;5053115;28;20025;-43
2023/08/30 07:45:15;;;;;;;9.60;5.93;;;;;;;32.26;39.11;98666.00;5052894;28;20309;-44
2023/08/30 07:47:40;;;;;;;8.70;6.63;;;;;;;32.49;38.67;98663.13;5052604;28;20055;-43
2023/08/30 07:50:07;;;;;;;11.57;6.50;;;;;;;32.51;38.77;98671.78;5052844;28;20021;-43
2023/08/30 07:52:32;;;;;;;12.32;6.10;;;;;;;33.05;37.54;98664.88;5052861;28;20013;-44
2023/08/30 07:54:58;;;;;;;10.00;6.20;;;;;;;33.19;37.48;98669.75;5052741;28;20381;-43
2023/08/30 07:57:23;;;;;;;9.40;5.63;;;;;;;33.21;37.30;98674.88;5052881;28;20337;-43
2023/08/30 07:59:49;;;;;;;12.38;6.38;;;;;;;33.49;36.40;98669.56;5052659;28;20025;-47
2023/08/30 08:02:14;;;;;;;11.75;7.00;;;;;;;33.39;36.00;98666.72;5052406;28;20082;-42
2023/08/30 08:04:39;;;;;;;11.35;6.53;;;;;;;33.53;36.54;98666.03;5052685;28;20115;-44
2023/08/30 08:07:05;;;;;;;12.80;6.32;;;;;;;33.67;35.70;98663.41;5052838;28;20024;-43
2023/08/30 08:09:31;;;;;;;12.63;6.20;;;;;;;33.43;36.60;98670.31;5052620;28;20376;-46
2023/08/30 08:11:57;;;;;;;8.32;5.72;;;;;;;33.60;37.39;98663.34;5052215;28;20494;-44
2023/08/30 08:14:23;;;;;;;11.02;6.45;;;;;;;33.99;36.02;98668.31;5052570;28;20112;-42
2023/08/30 08:16:49;;;;;;;8.32;5.70;;;;;;;34.09;35.71;98656.53;5052657;28;20109;-45
2023/08/30 08:19:14;;;;;;;8.50;6.07;;;;;;;34.17;35.75;98660.91;5051836;28;20032;-45
2023/08/30 08:21:40;;;;;;;10.02;6.97;;;;;;;34.38;35.61;98659.41;5052159;28;20372;-43
2023/08/30 08:24:06;;;;;;;11.98;6.35;;;;;;;34.49;35.28;98659.47;5052122;28;20028;-44
2023/08/30 08:26:31;;;;;;;12.15;5.72;;;;;;;34.72;34.88;98659.91;5051953;28;20021;-43
2023/08/30 08:28:56;;;;;;;10.45;6.05;;;;;;;34.69;34.18;98659.91;5051508;28;20170;-44
2023/08/30 08:31:22;;;;;;;9.57;5.97;;;;;;;34.46;35.23;98658.25;5050052;28;20020;-43
2023/08/30 08:33:51;;;;;;;6.40;5.80;;;;;;;34.55;35.25;98657.88;5051333;28;20485;-41
2023/08/30 08:36:16;;;;;;;13.95;6.00;;;;;;;34.73;34.30;98656.00;5051046;28;20562;-42
2023/08/30 08:38:42;;;;;;;10.15;5.88;;;;;;;34.77;34.35;98651.25;5051452;28;20111;-41
2023/08/30 08:41:14;;;;;;;8.95;6.22;;;;;;;34.57;34.44;98642.50;5050671;28;20049;-43
2023/08/30 08:43:42;;;;;;;10.75;6.53;;;;;;;34.30;34.72;98639.28;5051159;28;20476;-43
2023/08/30 08:46:09;;;;;;;;;;;;;;;34.51;34.79;98640.53;5051748;28;20516;-44
2023/08/30 08:48:40;;;;;;;8.20;6.20;;;;;;;34.81;34.34;98632.72;5050934;28;19999;-43
2023/08/30 08:51:06;;;;;;;7.68;5.85;;;;;;;34.83;34.58;98626.78;5051214;28;20028;-45
2023/08/30 08:53:32;;;;;;;8.80;5.72;;;;;;;35.17;34.76;98626.41;5051573;28;20098;-42
2023/08/30 08:56:00;;;;;;;15.80;13.48;;;;;;;34.92;35.16;98618.91;5051384;28;20104;-43
2023/08/30 08:58:26;;;;;;;7.97;6.03;;;;;;;34.89;34.76;98622.44;5051605;28;20033;-40
2023/08/30 09:00:52;;;;;;;8.50;6.10;;;;;;;34.47;35.23;98619.22;5051003;28;20508;-43
2023/08/30 09:03:18;;;;;;;7.78;6.00;;;;;;;34.81;34.05;98618.09;5050849;28;20090;-43
2023/08/30 09:05:46;;;;;;;9.80;5.95;;;;;;;34.85;33.78;98618.91;5050863;28;20033;-44
2023/08/30 09:08:13;;;;;;;9.60;5.70;;;;;;;35.17;34.16;98615.34;5051344;28;20025;-44
2023/08/30 09:10:40;;;;;;;9.27;5.97;;;;;;;35.39;33.78;98618.88;5051384;28;20024;-44
2023/08/30 09:13:05;;;;;;;7.65;5.88;;;;;;;34.99;34.07;98620.88;5050912;28;20040;-44
2023/08/30 09:15:36;;;;;;;10.15;6.13;;;;;;;35.20;33.16;98606.28;5051051;28;20108;-44
2023/08/30 09:18:02;;;;;;;7.32;5.50;;;;;;;35.26;32.70;98612.19;5051038;28;20040;-43
2023/08/30 09:20:28;;;;;;;8.60;5.93;;;;;;;35.34;32.72;98603.50;5050781;28;20028;-43
2023/08/30 09:22:53;;;;;;;8.55;5.53;;;;;;;35.38;31.44;98604.28;5050815;28;20074;-42
2023/08/30 09:25:29;;;;;;;9.32;6.03;;;;;;;34.78;33.72;98594.03;5050785;28;20413;-43
2023/08/30 09:27:59;;;;;;;10.30;6.03;;;;;;;34.82;34.24;98598.38;5050683;28;20508;-44
2023/08/30 09:30:25;;;;;;;7.78;5.63;;;;;;;34.89;33.91;98589.28;5050462;28;20059;-42
2023/08/30 09:32:51;;;;;;;10.15;6.60;;;;;;;34.63;33.89;98590.44;5050350;28;20052;-45
2023/08/30 09:35:16;;;;;;;7.68;6.30;;;;;;;35.11;33.68;98589.25;5050163;28;20503;-46
2023/08/30 09:37:44;;;;;;;11.48;6.30;;;;;;;35.46;31.75;98582.94;5049656;28;20075;-43
2023/08/30 09:40:10;;;;;;;9.02;5.78;;;;;;;35.35;32.22;98582.16;5050467;28;20040;-42
2023/08/30 09:42:41;;;;;;;10.18;6.30;;;;;;;34.79;32.76;98579.81;5050192;28;20025;-45
2023/08/30 09:45:17;;;;;;;7.55;5.80;;;;;;;35.03;33.45;98574.66;5050469;28;20044;-45
2023/08/30 09:47:47;;;;;;;8.98;6.28;;;;;;;35.24;32.57;98573.88;5050709;28;20040;-45
2023/08/30 09:50:16;;;;;;;10.88;6.40;;;;;;;35.15;32.99;98573.50;5050080;28;20028;-43
2023/08/30 09:52:42;;;;;;;9.00;5.88;;;;;;;35.25;32.62;98569.94;5050188;28;20021;-46
2023/08/30 09:55:09;;;;;;;7.53;5.75;;;;;;;35.46;32.82;98576.63;5050545;28;20408;-45
2023/08/30 09:57:35;;;;;;;9.25;6.43;;;;;;;35.53;32.54;98577.38;5050223;28;20017;-44
2023/08/30 10:00:03;;;;;;;9.50;6.63;;;;;;;35.54;32.65;98573.41;5050032;28;20025;-44
2023/08/30 10:02:30;;;;;;;10.20;6.72;;;;;;;35.81;32.07;98573.75;5049936;28;20503;-47
2023/08/30 10:04:57;;;;;;;9.75;6.05;;;;;;;35.70;32.47;98570.25;5050273;28;20033;-45
2023/08/30 10:07:24;;;;;;;8.05;6.05;;;;;;;35.65;32.26;98572.59;5050187;28;20021;-46
2023/08/30 10:09:52;;;;;;;6.95;5.85;;;;;;;35.51;32.38;98568.69;5050057;28;20029;-44
2023/08/30 10:12:20;;;;;;;;;;;;;;;35.41;31.55;98553.72;5051035;28;20020;-45
2023/08/30 10:14:45;;;;;;;11.98;6.25;;;;;;;35.22;31.54;98554.13;5050127;28;19916;-44
2023/08/30 10:17:12;;;;;;;8.57;6.30;;;;;;;35.23;31.27;98552.97;5050599;28;20459;-44
2023/08/30 10:19:38;;;;;;;9.52;6.38;;;;;;;34.65;32.72;98557.69;5050151;28;20507;-44
2023/08/30 10:22:08;;;;;;;10.82;6.90;;;;;;;35.00;32.06;98545.09;5050597;28;20025;-42
2023/08/30 10:24:41;;;;;;;12.43;8.80;;;;;;;35.16;32.12;98547.41;5049979;28;20025;-43
2023/08/30 10:27:08;;;;;;;11.98;6.88;;;;;;;35.12;31.35;98543.88;5050635;28;20017;-43
2023/08/30 10:29:36;;;;;;;8.25;6.28;;;;;;;34.95;32.21;98548.25;5050263;28;20029;-43
2023/08/30 10:32:06;;;;;;;8.02;6.40;;;;;;;34.40;31.51;98544.63;5050234;28;20025;-43
2023/08/30 10:34:34;;;;;;;8.43;6.30;;;;;;;34.54;31.62;98543.88;5049936;28;20032;-45
2023/08/30 10:37:00;;;;;;;9.52;6.45;;;;;;;34.66;31.40;98537.19;5050090;28;20562;-45
2023/08/30 10:39:35;;;;;;;10.10;6.75;;;;;;;34.85;31.45;98538.78;5050348;28;20052;-44
2023/08/30 10:42:06;;;;;;;11.55;6.78;;;;;;;34.46;31.76;98532.03;5049896;28;20198;-43
2023/08/30 10:44:32;;;;;;;10.60;7.00;;;;;;;34.37;31.78;98539.13;5050844;28;20032;-45
2023/08/30 10:46:57;;;;;;;9.52;6.90;;;;;;;34.68;31.58;98531.28;5050564;28;20021;-43
2023/08/30 10:49:23;;;;;;;8.55;7.00;;;;;;;34.74;32.43;98540.75;5050729;28;20025;-45
2023/08/30 10:51:58;;;;;;;12.63;7.13;;;;;;;34.98;32.23;98522.59;5048451;28;20119;-43
2023/08/30 10:54:24;;;;;;;10.05;6.93;;;;;;;35.27;32.69;98523.31;5051467;28;20603;-47
2023/08/30 10:57:01;;;;;;;10.13;7.28;;;;;;;34.90;31.86;98512.72;5053138;28;20049;-44
2023/08/30 10:59:29;;;;;;;10.10;6.75;;;;;;;34.95;32.50;98523.38;5053167;28;20430;-45
2023/08/30 11:01:55;;;;;;;11.52;7.05;;;;;;;34.98;32.06;98520.59;5053128;28;20044;-43
2023/08/30 11:04:22;;;;;;;7.65;6.85;;;;;;;35.37;31.38;98514.19;5053221;28;20534;-44
2023/08/30 11:06:50;;;;;;;10.23;6.80;;;;;;;35.48;31.32;98511.41;5053261;28;20021;-45
2023/08/30 11:09:21;;;;;;;11.60;7.40;;;;;;;35.54;31.56;98509.78;5053434;28;20094;-47
2023/08/30 11:11:47;;;;;;;12.70;7.57;;;;;;;35.33;32.21;98521.72;5053195;28;20103;-43
2023/08/30 11:14:13;;;;;;;12.55;7.25;;;;;;;34.53;32.66;98516.66;5052582;28;20048;-45
2023/08/30 11:16:40;;;;;;;11.07;8.05;;;;;;;34.44;33.21;98514.28;5052705;28;20475;-46
2023/08/30 11:19:07;;;;;;;10.00;7.90;;;;;;;34.30;34.11;98519.81;5052773;28;20025;-46
2023/08/30 11:21:35;;;;;;;13.40;8.25;;;;;;;33.89;33.61;98510.63;5052787;28;20025;-44
2023/08/30 11:24:00;;;;;;;12.80;7.90;;;;;;;33.96;32.91;98500.78;5052880;28;20021;-45
2023/08/30 11:26:26;;;;;;;10.63;7.55;;;;;;;34.36;33.17;98501.66;5052955;28;20388;-45